Welcome to Trans World Virtual Airlines!

Welcome TWVA's Newest Pilot:

TWA2313 Bryan Heald

Not a Trans World pilot yet?
Apply Now!




Sign-in with your pilot id or email, or register

Flight TWA7880

  • Submitted By: Austin Hill
  • Departure Airport: Kansas City International Airport (KMCI)
  • Arrival Airport: JFK Airport (KJFK)
  • Aircraft: E170 (N173TE)
  • Flight Time: 03.01
  • Date Submitted: 10/09/2018
  • Route: MCI MCM DEC VHP DQN AIR IHD THS LRP PTW ARD COL
  • Status: Accepted
Flight Details
Gross Revenue:
(65 load / $ 450.00 per unit
$ 29, 250.00
Fuel Cost:
(9603 fuel used @ 0.8 / unit)
$ 7, 682.40

Additional Log Information:

View Log

FS[11:51] Aircraft Title - Embraer 170 TWA
FS[11:51] Aircraft Model - E-170
FS[11:51] Flight Number TWA7880
FS[11:51] Departure KMCI
FS[11:51] Destination KJFK
FS[11:51] Boarding
FS[11:59] Pushing Back
FS[12:04] Taxiing to Runway
FS[12:09] Taking Off
FS[12:10] Taking Off
FS[12:10] 150kts
FS[12:10] pitch angle 5 degrees
FS[12:10] 15115 (lbs) of fuel onboard
FS[12:10] Climbing
FS[12:33] TOC Reached
FS[12:33] Cruise 37000
FS[14:06] TOD Reached
FS[14:06] Descending
FS[14:24] On Approach
FS[14:32] Landing Rate -52fpm
FS[14:32] 6656 (lbs) of fuel onboard
FS[14:32] pitch angle 3 degrees
FS[14:33] Taxiing to Gate
FS[14:43] Arrived
FS[14:50] Max Sim Rate: 1x
FS[14:50] kACARS_Free Version 1.0.1.1

Comments

Commenter Comment
Austin Hill KMCI 091152Z 12007KT 3SM RA BR FEW030 BKN050 OVC110 18/18 A2988 // KJFK 091440Z 20007KT 10SM BKN011 OVC038 23/22 A3034

Route Map